Check out our new PWSWeather beta!
PWSweather.com
Personal Weather Stations
Station Observations
TERNAARD
Friesland, TernaardNL

FrieslandTernaardNL

Lat: 53.380557, Lon: 5.969774

Elevation: 3

Station Type: Davis Vantage Pro-2

Latest ConditionsUpdated 7:45:00 PM GMT+01:01 Monday, Feb 24, 2020
Currently Today's Max Today's Min Today's Average
Temperature 49.5°F9.7°C 49.5°F9.7°C 37.7°F3.2°C 42.3°F5.7°C
Dew Point 47.2°F8.4°C 47.3°F8.5°C 35.6°F2.0°C 39.9°F4.4°C
Winds 12.6 mph WNW20.3 kmh WNW 16.1 mph -25.9 kmh - - 5.6 mph 9.0 kmh
Wind Gusts 18.4 mph29.6 kmh 29.9 mph48.1 kmh - -
Humidity 92% 96% 84% 91%
Pressure 29.44 in997.0 mb 30.12 in1020.0 mb 29.44 in997.0 mb -
Precipitation - 0.47 in11.9 mm - -
Hour Temp Dew Point Humidity Winds Wind Gusts Pressure Precip Precip Rate Daily Precip Total
07:45 PM 49.5°F9.7°C 47.2°F8.4°C 92% 12.6 mph WNW20.3 kmh WNW 18.4 mph29.6 kmh 29.44 in997.0 mb - 0.47 in11.9 mm 0.47 in11.9 mm
07:39 PM 49.5°F9.7°C 47.3°F8.5°C 92% 11.5 mph WNW18.5 kmh WNW 19.5 mph31.4 kmh 29.44 in997.0 mb - 0.47 in11.9 mm 0.47 in11.9 mm
07:33 PM 49.4°F9.7°C 47.2°F8.4°C 92% 14.9 mph W24.0 kmh W 19.5 mph31.4 kmh 29.44 in997.0 mb - 0.47 in11.9 mm 0.47 in11.9 mm
07:28 PM 49.4°F9.7°C 47.1°F8.4°C 92% 14.9 mph W24.0 kmh W 19.5 mph31.4 kmh 29.44 in997.0 mb - 0.47 in11.9 mm 0.47 in11.9 mm
07:22 PM 49.3°F9.6°C 47.1°F8.4°C 92% 12.6 mph W20.3 kmh W 20.7 mph33.3 kmh 29.44 in997.0 mb - 0.47 in11.9 mm 0.47 in11.9 mm
07:16 PM 49.4°F9.7°C 47.2°F8.4°C 92% 11.5 mph WNW18.5 kmh WNW 13.8 mph22.2 kmh 29.45 in997.3 mb - 0.47 in11.9 mm 0.47 in11.9 mm
07:11 PM 49.3°F9.6°C 47.1°F8.4°C 92% 13.8 mph WNW22.2 kmh WNW 20.7 mph33.3 kmh 29.44 in997.0 mb - 0.47 in11.9 mm 0.47 in11.9 mm
07:05 PM 49.4°F9.7°C 47.2°F8.4°C 92% 14.9 mph WNW24.0 kmh WNW 19.5 mph31.4 kmh 29.45 in997.3 mb - 0.47 in11.9 mm 0.47 in11.9 mm
07:00 PM 49.4°F9.7°C 47.2°F8.4°C 92% 16.1 mph WNW25.9 kmh WNW 21.8 mph35.1 kmh 29.45 in997.3 mb - 0.47 in11.9 mm 0.47 in11.9 mm
06:54 PM 49.4°F9.7°C 47.2°F8.4°C 92% 13.8 mph WNW22.2 kmh WNW 18.4 mph29.6 kmh 29.45 in997.3 mb - 0.47 in11.9 mm 0.47 in11.9 mm
06:48 PM 49.3°F9.6°C 47.1°F8.4°C 92% 14.9 mph WNW24.0 kmh WNW 29.9 mph48.1 kmh 29.45 in997.3 mb - 0.47 in11.9 mm 0.47 in11.9 mm
06:43 PM 49.2°F9.6°C 47.0°F8.3°C 92% 14.9 mph WNW24.0 kmh WNW 23.0 mph37.0 kmh 29.45 in997.3 mb - 0.47 in11.9 mm 0.47 in11.9 mm
06:37 PM 49.2°F9.6°C 47.0°F8.3°C 92% 13.8 mph WNW22.2 kmh WNW 17.3 mph27.8 kmh 29.45 in997.3 mb - 0.47 in11.9 mm 0.47 in11.9 mm
06:31 PM 49.1°F9.5°C 47.2°F8.4°C 93% 14.9 mph WNW24.0 kmh WNW 18.4 mph29.6 kmh 29.45 in997.3 mb - 0.47 in11.9 mm 0.47 in11.9 mm
06:26 PM 49.0°F9.4°C 47.0°F8.3°C 93% 16.1 mph W25.9 kmh W 20.7 mph33.3 kmh 29.45 in997.3 mb - 0.47 in11.9 mm 0.47 in11.9 mm
06:20 PM 48.9°F9.4°C 47.0°F8.3°C 93% 10.3 mph W16.6 kmh W 14.9 mph24.0 kmh 29.46 in997.6 mb - 0.47 in11.9 mm 0.47 in11.9 mm
06:15 PM 48.8°F9.3°C 46.9°F8.3°C 93% 12.6 mph WNW20.3 kmh WNW 18.4 mph29.6 kmh 29.46 in997.6 mb - 0.47 in11.9 mm 0.47 in11.9 mm
06:09 PM 48.8°F9.3°C 46.9°F8.3°C 93% 12.6 mph W20.3 kmh W 23.0 mph37.0 kmh 29.46 in997.6 mb - 0.47 in11.9 mm 0.47 in11.9 mm
06:03 PM 48.8°F9.3°C 46.9°F8.3°C 93% 12.6 mph W20.3 kmh W 19.5 mph31.4 kmh 29.46 in997.6 mb - 0.47 in11.9 mm 0.47 in11.9 mm
05:58 PM 48.7°F9.3°C 46.8°F8.2°C 93% 12.6 mph WNW20.3 kmh WNW 16.1 mph25.9 kmh 29.46 in997.6 mb - 0.47 in11.9 mm 0.47 in11.9 mm
05:52 PM 48.7°F9.3°C 46.8°F8.2°C 93% 13.8 mph W22.2 kmh W 19.5 mph31.4 kmh 29.47 in998.0 mb - 0.47 in11.9 mm 0.47 in11.9 mm
05:46 PM 48.6°F9.2°C 47.0°F8.3°C 94% 13.8 mph WNW22.2 kmh WNW 17.3 mph27.8 kmh 29.46 in997.6 mb - 0.47 in11.9 mm 0.47 in11.9 mm
05:41 PM 48.6°F9.2°C 46.9°F8.3°C 94% 14.9 mph WNW24.0 kmh WNW 21.8 mph35.1 kmh 29.46 in997.6 mb - 0.47 in11.9 mm 0.47 in11.9 mm
05:35 PM 48.5°F9.2°C 46.9°F8.3°C 94% 13.8 mph WNW22.2 kmh WNW 20.7 mph33.3 kmh 29.46 in997.6 mb - 0.47 in11.9 mm 0.47 in11.9 mm
05:30 PM 48.5°F9.2°C 46.8°F8.2°C 94% 13.8 mph W22.2 kmh W 17.3 mph27.8 kmh 29.46 in997.6 mb - 0.47 in11.9 mm 0.47 in11.9 mm
05:24 PM 48.3°F9.1°C 46.7°F8.2°C 94% 11.5 mph WNW18.5 kmh WNW 16.1 mph25.9 kmh 29.47 in998.0 mb - 0.47 in11.9 mm 0.47 in11.9 mm
05:18 PM 48.3°F9.1°C 46.7°F8.2°C 94% 12.6 mph W20.3 kmh W 18.4 mph29.6 kmh 29.47 in998.0 mb - 0.46 in11.7 mm 0.47 in11.9 mm
05:13 PM 48.2°F9.0°C 46.6°F8.1°C 94% 9.2 mph WNW14.8 kmh WNW 11.5 mph18.5 kmh 29.48 in998.3 mb - 0.46 in11.7 mm 0.46 in11.7 mm
05:07 PM 48.2°F9.0°C 46.5°F8.1°C 94% 10.3 mph W16.6 kmh W 13.8 mph22.2 kmh 29.48 in998.3 mb - 0.46 in11.7 mm 0.46 in11.7 mm
05:01 PM 48.1°F8.9°C 46.5°F8.1°C 94% 10.3 mph WNW16.6 kmh WNW 13.8 mph22.2 kmh 29.48 in998.3 mb - 0.44 in11.2 mm 0.44 in11.2 mm
04:56 PM 48.1°F8.9°C 46.5°F8.1°C 94% 10.3 mph W16.6 kmh W 16.1 mph25.9 kmh 29.48 in998.3 mb - 0.43 in10.9 mm 0.43 in10.9 mm
04:50 PM 48.1°F8.9°C 46.7°F8.2°C 95% 11.5 mph W18.5 kmh W 16.1 mph25.9 kmh 29.49 in998.6 mb - 0.41 in10.4 mm 0.41 in10.4 mm
04:45 PM 48.1°F8.9°C 46.7°F8.2°C 95% 12.6 mph W20.3 kmh W 17.3 mph27.8 kmh 29.49 in998.6 mb - 0.40 in10.2 mm 0.40 in10.2 mm
04:39 PM 47.9°F8.8°C 46.6°F8.1°C 95% 12.6 mph W20.3 kmh W 19.5 mph31.4 kmh 29.50 in999.0 mb - 0.40 in10.2 mm 0.40 in10.2 mm
04:33 PM 47.8°F8.8°C 46.5°F8.1°C 95% 10.3 mph WNW16.6 kmh WNW 16.1 mph25.9 kmh 29.50 in999.0 mb - 0.39 in9.9 mm 0.39 in9.9 mm
04:28 PM 47.7°F8.7°C 46.3°F7.9°C 95% 8.0 mph WNW12.9 kmh WNW 11.5 mph18.5 kmh 29.50 in999.0 mb - 0.39 in9.9 mm 0.39 in9.9 mm
04:22 PM 47.5°F8.6°C 46.1°F7.8°C 95% 10.3 mph W16.6 kmh W 16.1 mph25.9 kmh 29.50 in999.0 mb - 0.39 in9.9 mm 0.39 in9.9 mm
04:16 PM 47.5°F8.6°C 46.4°F8.0°C 96% 11.5 mph W18.5 kmh W 20.7 mph33.3 kmh 29.50 in999.0 mb - 0.38 in9.7 mm 0.38 in9.7 mm
04:11 PM 47.2°F8.4°C 46.1°F7.8°C 96% 12.6 mph W20.3 kmh W 14.9 mph24.0 kmh 29.51 in999.3 mb - 0.37 in9.4 mm 0.37 in9.4 mm
04:05 PM 45.8°F7.7°C 44.8°F7.1°C 96% 6.9 mph W11.1 kmh W 6.9 mph11.1 kmh 29.52 in999.7 mb - 0.35 in8.9 mm 0.35 in8.9 mm
04:00 PM 45.4°F7.4°C 44.4°F6.9°C 96% 5.8 mph W9.3 kmh W 9.2 mph14.8 kmh 29.52 in999.7 mb - 0.35 in8.9 mm 0.35 in8.9 mm
03:54 PM 44.0°F6.7°C 42.7°F5.9°C 95% 3.4 mph WSW5.5 kmh WSW 6.9 mph11.1 kmh 29.53 in1000.0 mb - 0.34 in8.6 mm 0.34 in8.6 mm
03:48 PM 44.0°F6.7°C 42.6°F5.9°C 95% 2.3 mph SW3.7 kmh SW 3.4 mph5.5 kmh 29.53 in1000.0 mb - 0.34 in8.6 mm 0.34 in8.6 mm
03:43 PM 43.5°F6.4°C 42.1°F5.6°C 95% 6.9 mph WSW11.1 kmh WSW 8.0 mph12.9 kmh 29.54 in1000.3 mb - 0.32 in8.1 mm 0.32 in8.1 mm
03:37 PM 43.4°F6.3°C 42.1°F5.6°C 95% 5.8 mph SW9.3 kmh SW 9.2 mph14.8 kmh 29.54 in1000.3 mb - 0.32 in8.1 mm 0.32 in8.1 mm
03:31 PM 42.8°F6.0°C 41.5°F5.3°C 95% 5.8 mph WSW9.3 kmh WSW 8.0 mph12.9 kmh 29.55 in1000.7 mb - 0.31 in7.9 mm 0.31 in7.9 mm
03:26 PM 42.6°F5.9°C 41.3°F5.2°C 95% 6.9 mph SW11.1 kmh SW 8.0 mph12.9 kmh 29.56 in1001.0 mb - 0.30 in7.6 mm 0.30 in7.6 mm
03:20 PM 42.5°F5.8°C 41.1°F5.1°C 95% 8.0 mph WSW12.9 kmh WSW 12.6 mph20.3 kmh 29.56 in1001.0 mb - 0.29 in7.4 mm 0.29 in7.4 mm
03:15 PM 42.2°F5.7°C 40.8°F4.9°C 95% 6.9 mph SW11.1 kmh SW 10.3 mph16.6 kmh 29.56 in1001.0 mb - 0.28 in7.1 mm 0.28 in7.1 mm
03:09 PM 41.5°F5.3°C 40.2°F4.6°C 95% 6.9 mph SW11.1 kmh SW 10.3 mph16.6 kmh 29.57 in1001.4 mb - 0.28 in7.1 mm 0.28 in7.1 mm
03:03 PM 41.3°F5.2°C 40.0°F4.4°C 95% 5.8 mph SW9.3 kmh SW 6.9 mph11.1 kmh 29.58 in1001.7 mb - 0.28 in7.1 mm 0.28 in7.1 mm
02:58 PM 41.0°F5.0°C 39.7°F4.3°C 95% 4.6 mph SW7.4 kmh SW 5.8 mph9.3 kmh 29.58 in1001.7 mb - 0.26 in6.6 mm 0.26 in6.6 mm
02:52 PM 41.0°F5.0°C 39.4°F4.1°C 94% 3.4 mph W5.5 kmh W 4.6 mph7.4 kmh 29.59 in1002.0 mb - 0.26 in6.6 mm 0.26 in6.6 mm
02:46 PM 40.5°F4.7°C 38.9°F3.8°C 94% 6.9 mph WSW11.1 kmh WSW 9.2 mph14.8 kmh 29.60 in1002.4 mb - 0.24 in6.1 mm 0.24 in6.1 mm
02:41 PM 40.1°F4.5°C 38.5°F3.6°C 94% 3.4 mph WSW5.5 kmh WSW 3.4 mph5.5 kmh 29.61 in1002.7 mb - 0.24 in6.1 mm 0.24 in6.1 mm
02:35 PM 39.8°F4.3°C 38.2°F3.4°C 94% 3.4 mph SW5.5 kmh SW 5.8 mph9.3 kmh 29.61 in1002.7 mb - 0.24 in6.1 mm 0.24 in6.1 mm
02:30 PM 39.7°F4.3°C 38.1°F3.4°C 94% 3.4 mph N5.5 kmh N 4.6 mph7.4 kmh 29.61 in1002.7 mb - 0.23 in5.8 mm 0.23 in5.8 mm
02:24 PM 39.5°F4.2°C 37.9°F3.3°C 94% 3.4 mph ENE5.5 kmh ENE 4.6 mph7.4 kmh 29.62 in1003.0 mb - 0.23 in5.8 mm 0.23 in5.8 mm
02:18 PM 39.4°F4.1°C 37.8°F3.2°C 94% 3.4 mph SE5.5 kmh SE 5.8 mph9.3 kmh 29.63 in1003.4 mb - 0.22 in5.6 mm 0.22 in5.6 mm
02:13 PM 39.2°F4.0°C 37.6°F3.1°C 94% 4.6 mph SE7.4 kmh SE 4.6 mph7.4 kmh 29.64 in1003.7 mb - 0.21 in5.3 mm 0.21 in5.3 mm
02:07 PM 39.2°F4.0°C 37.6°F3.1°C 94% 4.6 mph E7.4 kmh E 9.2 mph14.8 kmh 29.64 in1003.7 mb - 0.21 in5.3 mm 0.21 in5.3 mm
02:01 PM 38.9°F3.8°C 37.3°F2.9°C 94% 3.4 mph ENE5.5 kmh ENE 4.6 mph7.4 kmh 29.65 in1004.1 mb - 0.20 in5.1 mm 0.21 in5.3 mm
01:56 PM 38.7°F3.7°C 36.9°F2.7°C 93% 2.3 mph E3.7 kmh E 5.8 mph9.3 kmh 29.67 in1004.7 mb - 0.20 in5.1 mm 0.21 in5.3 mm
01:50 PM 38.5°F3.6°C 36.7°F2.6°C 93% 2.3 mph NE3.7 kmh NE 3.4 mph5.5 kmh 29.68 in1005.1 mb - 0.20 in5.1 mm 0.20 in5.1 mm
01:45 PM 38.3°F3.5°C 36.5°F2.5°C 93% 3.4 mph NE5.5 kmh NE 4.6 mph7.4 kmh 29.68 in1005.1 mb - 0.20 in5.1 mm 0.20 in5.1 mm
01:39 PM 38.1°F3.4°C 36.3°F2.4°C 93% 3.4 mph ESE5.5 kmh ESE 6.9 mph11.1 kmh 29.70 in1005.8 mb - 0.19 in4.8 mm 0.19 in4.8 mm
01:33 PM 38.0°F3.3°C 36.2°F2.3°C 93% 2.3 mph ENE3.7 kmh ENE 3.4 mph5.5 kmh 29.71 in1006.1 mb - 0.18 in4.6 mm 0.18 in4.6 mm
01:28 PM 37.8°F3.2°C 36.0°F2.2°C 93% 4.6 mph ENE7.4 kmh ENE 6.9 mph11.1 kmh 29.72 in1006.4 mb - 0.17 in4.3 mm 0.17 in4.3 mm
01:22 PM 37.7°F3.2°C 35.6°F2.0°C 92% 3.4 mph E5.5 kmh E 6.9 mph11.1 kmh 29.72 in1006.4 mb - 0.16 in4.1 mm 0.16 in4.1 mm
01:16 PM 37.7°F3.2°C 35.6°F2.0°C 92% 3.4 mph E5.5 kmh E 6.9 mph11.1 kmh 29.74 in1007.1 mb - 0.14 in3.6 mm 0.14 in3.6 mm
01:11 PM 37.7°F3.2°C 35.6°F2.0°C 92% 2.3 mph NNE3.7 kmh NNE 4.6 mph7.4 kmh 29.75 in1007.5 mb - 0.13 in3.3 mm 0.13 in3.3 mm
01:05 PM 37.8°F3.2°C 35.7°F2.1°C 92% 4.6 mph ESE7.4 kmh ESE 8.0 mph12.9 kmh 29.76 in1007.8 mb - 0.13 in3.3 mm 0.13 in3.3 mm
01:00 PM 37.8°F3.2°C 35.7°F2.1°C 92% 2.3 mph E3.7 kmh E 4.6 mph7.4 kmh 29.76 in1007.8 mb - 0.13 in3.3 mm 0.13 in3.3 mm
12:54 PM 37.7°F3.2°C 35.6°F2.0°C 92% 3.4 mph NE5.5 kmh NE 4.6 mph7.4 kmh 29.77 in1008.1 mb - 0.11 in2.8 mm 0.11 in2.8 mm
12:48 PM 37.8°F3.2°C 35.7°F2.1°C 92% 3.4 mph E5.5 kmh E 4.6 mph7.4 kmh 29.78 in1008.5 mb - 0.11 in2.8 mm 0.11 in2.8 mm
12:43 PM 37.9°F3.3°C 35.7°F2.1°C 92% 3.4 mph ENE5.5 kmh ENE 4.6 mph7.4 kmh 29.79 in1008.8 mb - 0.10 in2.5 mm 0.10 in2.5 mm
12:37 PM 38.0°F3.3°C 35.9°F2.2°C 92% 4.6 mph NE7.4 kmh NE 5.8 mph9.3 kmh 29.79 in1008.8 mb - 0.10 in2.5 mm 0.10 in2.5 mm
12:31 PM 38.1°F3.4°C 36.0°F2.2°C 92% 3.4 mph WSW5.5 kmh WSW 5.8 mph9.3 kmh 29.80 in1009.1 mb - 0.09 in2.3 mm 0.09 in2.3 mm
12:26 PM 38.1°F3.4°C 36.0°F2.2°C 92% 4.6 mph NNE7.4 kmh NNE 5.8 mph9.3 kmh 29.81 in1009.5 mb - 0.09 in2.3 mm 0.09 in2.3 mm
12:20 PM 38.2°F3.4°C 36.1°F2.3°C 92% 3.4 mph NW5.5 kmh NW 6.9 mph11.1 kmh 29.82 in1009.8 mb - 0.09 in2.3 mm 0.09 in2.3 mm
12:15 PM 38.3°F3.5°C 36.2°F2.3°C 92% 3.4 mph NNE5.5 kmh NNE 4.6 mph7.4 kmh 29.82 in1009.8 mb - 0.09 in2.3 mm 0.09 in2.3 mm
12:09 PM 38.5°F3.6°C 36.4°F2.4°C 92% 6.9 mph WSW11.1 kmh WSW 9.2 mph14.8 kmh 29.83 in1010.2 mb - 0.08 in2.0 mm 0.08 in2.0 mm
12:03 PM 38.5°F3.6°C 36.4°F2.4°C 92% 8.0 mph SSW12.9 kmh SSW 11.5 mph18.5 kmh 29.84 in1010.5 mb - 0.07 in1.8 mm 0.07 in1.8 mm
11:58 AM 38.7°F3.7°C 36.6°F2.6°C 92% 5.8 mph SW9.3 kmh SW 11.5 mph18.5 kmh 29.85 in1010.8 mb - 0.06 in1.5 mm 0.06 in1.5 mm
11:52 AM 38.7°F3.7°C 36.6°F2.6°C 92% 4.6 mph N7.4 kmh N 5.8 mph9.3 kmh 29.85 in1010.8 mb - 0.06 in1.5 mm 0.06 in1.5 mm
11:46 AM 38.8°F3.8°C 36.7°F2.6°C 92% 4.6 mph SW7.4 kmh SW 6.9 mph11.1 kmh 29.86 in1011.2 mb - 0.06 in1.5 mm 0.06 in1.5 mm
11:41 AM 38.9°F3.8°C 36.8°F2.7°C 92% 5.8 mph WSW9.3 kmh WSW 6.9 mph11.1 kmh 29.87 in1011.5 mb - 0.06 in1.5 mm 0.06 in1.5 mm
11:35 AM 38.9°F3.8°C 36.5°F2.5°C 91% 5.8 mph SW9.3 kmh SW 11.5 mph18.5 kmh 29.88 in1011.9 mb - 0.05 in1.3 mm 0.05 in1.3 mm
11:30 AM 38.9°F3.8°C 36.5°F2.5°C 91% 6.9 mph SW11.1 kmh SW 11.5 mph18.5 kmh 29.88 in1011.9 mb - 0.05 in1.3 mm 0.05 in1.3 mm
11:24 AM 38.9°F3.8°C 36.5°F2.5°C 91% 5.8 mph WSW9.3 kmh WSW 6.9 mph11.1 kmh 29.88 in1011.9 mb - 0.04 in1.0 mm 0.04 in1.0 mm
11:18 AM 38.9°F3.8°C 36.5°F2.5°C 91% 8.0 mph WSW12.9 kmh WSW 10.3 mph16.6 kmh 29.89 in1012.2 mb - 0.04 in1.0 mm 0.04 in1.0 mm
11:13 AM 39.2°F4.0°C 36.5°F2.5°C 90% 9.2 mph WSW14.8 kmh WSW 11.5 mph18.5 kmh 29.90 in1012.5 mb - 0.03 in0.8 mm 0.03 in0.8 mm
11:07 AM 39.2°F4.0°C 36.6°F2.6°C 90% 8.0 mph WSW12.9 kmh WSW 11.5 mph18.5 kmh 29.90 in1012.5 mb - 0.03 in0.8 mm 0.03 in0.8 mm
11:01 AM 39.5°F4.2°C 36.8°F2.7°C 90% 9.2 mph WSW14.8 kmh WSW 11.5 mph18.5 kmh 29.91 in1012.9 mb - 0.02 in0.5 mm 0.02 in0.5 mm
10:56 AM 39.5°F4.2°C 36.5°F2.5°C 89% 6.9 mph WSW11.1 kmh WSW 10.3 mph16.6 kmh 29.92 in1013.2 mb - 0.02 in0.5 mm 0.02 in0.5 mm
10:50 AM 39.7°F4.3°C 36.7°F2.6°C 89% 6.9 mph WSW11.1 kmh WSW 11.5 mph18.5 kmh 29.93 in1013.5 mb - 0.02 in0.5 mm 0.02 in0.5 mm
10:45 AM 40.2°F4.6°C 37.2°F2.9°C 89% 6.9 mph WSW11.1 kmh WSW 16.1 mph25.9 kmh 29.93 in1013.5 mb - 0.01 in0.3 mm 0.01 in0.3 mm
10:39 AM 40.5°F4.7°C 37.3°F2.9°C 88% 9.2 mph WSW14.8 kmh WSW 13.8 mph22.2 kmh 29.93 in1013.5 mb - 0.00 in0.0 mm 0.00 in0.0 mm
10:33 AM 40.7°F4.8°C 37.7°F3.2°C 89% 5.8 mph WSW9.3 kmh WSW 10.3 mph16.6 kmh 29.95 in1014.2 mb - 0.00 in0.0 mm 0.00 in0.0 mm
10:28 AM 40.8°F4.9°C 38.1°F3.4°C 90% 4.6 mph WSW7.4 kmh WSW 9.2 mph14.8 kmh 29.93 in1013.5 mb - 0.00 in0.0 mm 0.00 in0.0 mm
10:22 AM 40.8°F4.9°C 38.1°F3.4°C 90% 5.8 mph WSW9.3 kmh WSW 8.0 mph12.9 kmh 29.94 in1013.9 mb - 0.00 in0.0 mm 0.00 in0.0 mm
10:16 AM 40.8°F4.9°C 38.1°F3.4°C 90% 4.6 mph SW7.4 kmh SW 9.2 mph14.8 kmh 29.95 in1014.2 mb - 0.00 in0.0 mm 0.00 in0.0 mm
10:11 AM 40.8°F4.9°C 38.1°F3.4°C 90% 3.4 mph WSW5.5 kmh WSW 4.6 mph7.4 kmh 29.95 in1014.2 mb - 0.00 in0.0 mm 0.00 in0.0 mm
10:05 AM 40.8°F4.9°C 38.3°F3.5°C 91% 3.4 mph SW5.5 kmh SW 4.6 mph7.4 kmh 29.95 in1014.2 mb - 0.00 in0.0 mm 0.00 in0.0 mm
10:00 AM 40.7°F4.8°C 38.3°F3.5°C 91% 4.6 mph WSW7.4 kmh WSW 5.8 mph9.3 kmh 29.95 in1014.2 mb - 0.00 in0.0 mm 0.00 in0.0 mm
09:54 AM 40.5°F4.7°C 38.4°F3.6°C 92% 3.4 mph SW5.5 kmh SW 4.6 mph7.4 kmh 29.95 in1014.2 mb - 0.00 in0.0 mm 0.00 in0.0 mm
09:48 AM 40.5°F4.7°C 38.4°F3.6°C 92% 4.6 mph WSW7.4 kmh WSW 5.8 mph9.3 kmh 29.96 in1014.6 mb - 0.00 in0.0 mm 0.00 in0.0 mm
09:43 AM 40.4°F4.7°C 38.3°F3.5°C 92% 4.6 mph SW7.4 kmh SW 8.0 mph12.9 kmh 29.97 in1014.9 mb - 0.00 in0.0 mm 0.00 in0.0 mm
09:37 AM 40.4°F4.7°C 38.3°F3.5°C 92% 4.6 mph WSW7.4 kmh WSW 9.2 mph14.8 kmh 29.98 in1015.2 mb - 0.00 in0.0 mm 0.00 in0.0 mm
09:31 AM 40.4°F4.7°C 38.5°F3.6°C 93% 5.8 mph WSW9.3 kmh WSW 8.0 mph12.9 kmh 30.00 in1015.9 mb - 0.00 in0.0 mm 0.00 in0.0 mm
09:26 AM 40.4°F4.7°C 38.5°F3.6°C 93% 5.8 mph WSW9.3 kmh WSW 8.0 mph12.9 kmh 30.00 in1015.9 mb - 0.00 in0.0 mm 0.00 in0.0 mm
09:20 AM 40.3°F4.6°C 38.4°F3.6°C 93% 4.6 mph WSW7.4 kmh WSW 6.9 mph11.1 kmh 30.00 in1015.9 mb - 0.00 in0.0 mm 0.00 in0.0 mm
09:15 AM 40.3°F4.6°C 38.4°F3.6°C 93% 4.6 mph SW7.4 kmh SW 6.9 mph11.1 kmh 30.01 in1016.3 mb - 0.00 in0.0 mm 0.00 in0.0 mm
09:09 AM 40.2°F4.6°C 38.3°F3.5°C 93% 4.6 mph SW7.4 kmh SW 6.9 mph11.1 kmh 30.01 in1016.3 mb - 0.00 in0.0 mm 0.00 in0.0 mm
09:03 AM 40.2°F4.6°C 38.3°F3.5°C 93% 4.6 mph WSW7.4 kmh WSW 5.8 mph9.3 kmh 30.01 in1016.3 mb - 0.00 in0.0 mm 0.00 in0.0 mm
08:58 AM 40.1°F4.5°C 38.2°F3.4°C 93% 3.4 mph SW5.5 kmh SW 4.6 mph7.4 kmh 30.02 in1016.6 mb - 0.00 in0.0 mm 0.00 in0.0 mm
08:52 AM 40.1°F4.5°C 38.2°F3.4°C 93% 3.4 mph WSW5.5 kmh WSW 8.0 mph12.9 kmh 30.03 in1016.9 mb - 0.00 in0.0 mm 0.00 in0.0 mm
08:46 AM 40.0°F4.4°C 38.2°F3.4°C 93% 4.6 mph WSW7.4 kmh WSW 8.0 mph12.9 kmh 30.03 in1016.9 mb - 0.00 in0.0 mm 0.00 in0.0 mm
08:41 AM 40.0°F4.4°C 38.1°F3.4°C 93% 4.6 mph WSW7.4 kmh WSW 6.9 mph11.1 kmh 30.04 in1017.3 mb - 0.00 in0.0 mm 0.00 in0.0 mm
08:35 AM 39.9°F4.4°C 38.0°F3.3°C 93% 2.3 mph SW3.7 kmh SW 3.4 mph5.5 kmh 30.04 in1017.3 mb - 0.00 in0.0 mm 0.00 in0.0 mm
08:30 AM 40.0°F4.4°C 38.1°F3.4°C 93% 5.8 mph WSW9.3 kmh WSW 6.9 mph11.1 kmh 30.04 in1017.3 mb - 0.00 in0.0 mm 0.00 in0.0 mm
08:24 AM 39.9°F4.4°C 38.0°F3.3°C 93% 1.1 mph WSW1.8 kmh WSW 3.4 mph5.5 kmh 30.05 in1017.6 mb - 0.00 in0.0 mm 0.00 in0.0 mm
08:18 AM 39.9°F4.4°C 38.0°F3.3°C 93% 2.3 mph SW3.7 kmh SW 3.4 mph5.5 kmh 30.05 in1017.6 mb - 0.00 in0.0 mm 0.00 in0.0 mm
08:13 AM 39.8°F4.3°C 37.9°F3.3°C 93% 2.3 mph WSW3.7 kmh WSW 3.4 mph5.5 kmh 30.05 in1017.6 mb - 0.00 in0.0 mm 0.00 in0.0 mm
08:07 AM 39.7°F4.3°C 37.8°F3.2°C 93% 2.3 mph WSW3.7 kmh WSW 3.4 mph5.5 kmh 30.06 in1017.9 mb - 0.00 in0.0 mm 0.00 in0.0 mm
08:01 AM 39.7°F4.3°C 37.8°F3.2°C 93% 2.3 mph SW3.7 kmh SW 2.3 mph3.7 kmh 30.06 in1017.9 mb - 0.00 in0.0 mm 0.00 in0.0 mm
07:56 AM 39.7°F4.3°C 37.8°F3.2°C 93% 1.1 mph SW1.8 kmh SW 3.4 mph5.5 kmh 30.06 in1017.9 mb - 0.00 in0.0 mm 0.00 in0.0 mm
07:50 AM 39.8°F4.3°C 37.9°F3.3°C 93% 1.1 mph SW1.8 kmh SW 3.4 mph5.5 kmh 30.06 in1017.9 mb - 0.00 in0.0 mm 0.00 in0.0 mm
07:45 AM 39.9°F4.4°C 38.0°F3.3°C 93% 1.1 mph SW1.8 kmh SW 3.4 mph5.5 kmh 30.07 in1018.3 mb - 0.00 in0.0 mm 0.00 in0.0 mm
07:39 AM 39.8°F4.3°C 37.9°F3.3°C 93% Calm Calm -- 30.07 in1018.3 mb - 0.00 in0.0 mm 0.00 in0.0 mm
07:33 AM 39.8°F4.3°C 37.9°F3.3°C 93% Calm Calm 3.4 mph5.5 kmh 30.07 in1018.3 mb - 0.00 in0.0 mm 0.00 in0.0 mm
07:28 AM 39.8°F4.3°C 37.9°F3.3°C 93% Calm Calm -- 30.07 in1018.3 mb - 0.00 in0.0 mm 0.00 in0.0 mm
07:22 AM 39.8°F4.3°C 37.9°F3.3°C 93% Calm Calm -- 30.07 in1018.3 mb - 0.00 in0.0 mm 0.00 in0.0 mm
07:16 AM 39.8°F4.3°C 37.7°F3.2°C 92% Calm Calm 2.3 mph3.7 kmh 30.07 in1018.3 mb - 0.00 in0.0 mm 0.00 in0.0 mm
07:11 AM 39.8°F4.3°C 37.7°F3.2°C 92% 1.1 mph SW1.8 kmh SW 2.3 mph3.7 kmh 30.08 in1018.6 mb - 0.00 in0.0 mm 0.00 in0.0 mm
07:05 AM 39.9°F4.4°C 37.8°F3.2°C 92% Calm Calm -- 30.08 in1018.6 mb - 0.00 in0.0 mm 0.00 in0.0 mm
07:00 AM 40.0°F4.4°C 37.9°F3.3°C 92% Calm Calm -- 30.08 in1018.6 mb - 0.00 in0.0 mm 0.00 in0.0 mm
06:54 AM 40.1°F4.5°C 38.0°F3.3°C 92% Calm Calm -- 30.09 in1019.0 mb - 0.00 in0.0 mm 0.00 in0.0 mm
06:48 AM 40.1°F4.5°C 38.0°F3.3°C 92% Calm Calm 1.1 mph1.8 kmh 30.09 in1019.0 mb - 0.00 in0.0 mm 0.00 in0.0 mm
06:43 AM 40.2°F4.6°C 38.1°F3.4°C 92% Calm Calm -- 30.09 in1019.0 mb - 0.00 in0.0 mm 0.00 in0.0 mm
06:37 AM 40.2°F4.6°C 38.1°F3.4°C 92% Calm Calm -- 30.09 in1019.0 mb - 0.00 in0.0 mm 0.00 in0.0 mm
06:31 AM 40.3°F4.6°C 38.2°F3.4°C 92% Calm Calm 3.4 mph5.5 kmh 30.09 in1019.0 mb - 0.00 in0.0 mm 0.00 in0.0 mm
06:26 AM 40.4°F4.7°C 38.3°F3.5°C 92% Calm Calm -- 30.09 in1019.0 mb - 0.00 in0.0 mm 0.00 in0.0 mm
06:20 AM 40.5°F4.7°C 38.3°F3.5°C 92% Calm Calm -- 30.09 in1019.0 mb - 0.00 in0.0 mm 0.00 in0.0 mm
06:15 AM 40.6°F4.8°C 38.5°F3.6°C 92% Calm Calm -- 30.10 in1019.3 mb - 0.00 in0.0 mm 0.00 in0.0 mm
06:09 AM 40.7°F4.8°C 38.6°F3.7°C 92% 2.3 mph WNW3.7 kmh WNW 3.4 mph5.5 kmh 30.10 in1019.3 mb - 0.00 in0.0 mm 0.00 in0.0 mm
06:03 AM 40.7°F4.8°C 38.6°F3.7°C 92% Calm Calm -- 30.11 in1019.6 mb - 0.00 in0.0 mm 0.00 in0.0 mm
05:58 AM 40.8°F4.9°C 38.7°F3.7°C 92% Calm Calm -- 30.11 in1019.6 mb - 0.00 in0.0 mm 0.00 in0.0 mm
05:52 AM 40.8°F4.9°C 38.4°F3.6°C 91% 1.1 mph W1.8 kmh W 3.4 mph5.5 kmh 30.11 in1019.6 mb - 0.00 in0.0 mm 0.00 in0.0 mm
05:46 AM 40.9°F4.9°C 38.7°F3.7°C 92% 2.3 mph WNW3.7 kmh WNW 3.4 mph5.5 kmh 30.11 in1019.6 mb - 0.00 in0.0 mm 0.00 in0.0 mm
05:41 AM 40.9°F4.9°C 38.5°F3.6°C 91% 1.1 mph W1.8 kmh W 3.4 mph5.5 kmh 30.11 in1019.6 mb - 0.00 in0.0 mm 0.00 in0.0 mm
05:35 AM 41.0°F5.0°C 38.6°F3.7°C 91% 3.4 mph W5.5 kmh W 5.8 mph9.3 kmh 30.11 in1019.6 mb - 0.00 in0.0 mm 0.00 in0.0 mm
05:30 AM 41.0°F5.0°C 38.6°F3.7°C 91% 3.4 mph WNW5.5 kmh WNW 3.4 mph5.5 kmh 30.11 in1019.6 mb - 0.00 in0.0 mm 0.00 in0.0 mm
05:24 AM 41.1°F5.1°C 38.7°F3.7°C 91% 2.3 mph WNW3.7 kmh WNW 3.4 mph5.5 kmh 30.12 in1020.0 mb - 0.00 in0.0 mm 0.00 in0.0 mm
05:18 AM 41.0°F5.0°C 38.6°F3.7°C 91% 2.3 mph WNW3.7 kmh WNW 3.4 mph5.5 kmh 30.12 in1020.0 mb - 0.00 in0.0 mm 0.00 in0.0 mm
05:13 AM 41.1°F5.1°C 38.7°F3.7°C 91% 2.3 mph W3.7 kmh W 4.6 mph7.4 kmh 30.12 in1020.0 mb - 0.00 in0.0 mm 0.00 in0.0 mm
05:07 AM 41.2°F5.1°C 38.8°F3.8°C 91% 2.3 mph WNW3.7 kmh WNW 3.4 mph5.5 kmh 30.12 in1020.0 mb - 0.00 in0.0 mm 0.00 in0.0 mm
05:01 AM 41.3°F5.2°C 38.9°F3.8°C 91% 3.4 mph WNW5.5 kmh WNW 3.4 mph5.5 kmh 30.12 in1020.0 mb - 0.00 in0.0 mm 0.00 in0.0 mm
04:56 AM 41.4°F5.2°C 39.0°F3.9°C 91% 2.3 mph WNW3.7 kmh WNW 4.6 mph7.4 kmh 30.11 in1019.6 mb - 0.00 in0.0 mm 0.00 in0.0 mm
04:50 AM 41.3°F5.2°C 38.9°F3.8°C 91% 3.4 mph WNW5.5 kmh WNW 3.4 mph5.5 kmh 30.12 in1020.0 mb - 0.00 in0.0 mm 0.00 in0.0 mm
04:45 AM 41.3°F5.2°C 38.9°F3.8°C 91% 2.3 mph WNW3.7 kmh WNW 3.4 mph5.5 kmh 30.12 in1020.0 mb - 0.00 in0.0 mm 0.00 in0.0 mm
04:39 AM 41.3°F5.2°C 38.9°F3.8°C 91% 4.6 mph W7.4 kmh W 4.6 mph7.4 kmh 30.12 in1020.0 mb - 0.00 in0.0 mm 0.00 in0.0 mm
04:33 AM 41.3°F5.2°C 38.9°F3.8°C 91% 3.4 mph WNW5.5 kmh WNW 3.4 mph5.5 kmh 30.12 in1020.0 mb - 0.00 in0.0 mm 0.00 in0.0 mm
04:28 AM 41.3°F5.2°C 38.9°F3.8°C 91% 4.6 mph WNW7.4 kmh WNW 3.4 mph5.5 kmh 30.11 in1019.6 mb - 0.00 in0.0 mm 0.00 in0.0 mm
04:22 AM 41.4°F5.2°C 38.7°F3.7°C 90% 2.3 mph W3.7 kmh W 3.4 mph5.5 kmh 30.11 in1019.6 mb - 0.00 in0.0 mm 0.00 in0.0 mm
04:16 AM 41.5°F5.3°C 38.8°F3.8°C 90% 4.6 mph W7.4 kmh W 4.6 mph7.4 kmh 30.11 in1019.6 mb - 0.00 in0.0 mm 0.00 in0.0 mm
04:11 AM 41.5°F5.3°C 38.8°F3.8°C 90% 5.8 mph W9.3 kmh W 6.9 mph11.1 kmh 30.11 in1019.6 mb - 0.00 in0.0 mm 0.00 in0.0 mm
04:05 AM 41.6°F5.3°C 38.9°F3.8°C 90% 4.6 mph W7.4 kmh W 4.6 mph7.4 kmh 30.12 in1020.0 mb - 0.00 in0.0 mm 0.00 in0.0 mm
04:00 AM 41.6°F5.3°C 38.9°F3.8°C 90% 4.6 mph WNW7.4 kmh WNW 5.8 mph9.3 kmh 30.12 in1020.0 mb - 0.00 in0.0 mm 0.00 in0.0 mm
03:54 AM 41.6°F5.3°C 38.9°F3.8°C 90% 5.8 mph WNW9.3 kmh WNW 6.9 mph11.1 kmh 30.12 in1020.0 mb - 0.00 in0.0 mm 0.00 in0.0 mm
03:48 AM 41.5°F5.3°C 38.8°F3.8°C 90% 5.8 mph WNW9.3 kmh WNW 6.9 mph11.1 kmh 30.12 in1020.0 mb - 0.00 in0.0 mm 0.00 in0.0 mm
03:43 AM 41.6°F5.3°C 38.9°F3.8°C 90% 4.6 mph WNW7.4 kmh WNW 8.0 mph12.9 kmh 30.12 in1020.0 mb - 0.00 in0.0 mm 0.00 in0.0 mm
03:37 AM 41.7°F5.4°C 39.0°F3.9°C 90% 3.4 mph NW5.5 kmh NW 4.6 mph7.4 kmh 30.12 in1020.0 mb - 0.00 in0.0 mm 0.00 in0.0 mm
03:31 AM 41.7°F5.4°C 38.7°F3.7°C 89% 3.4 mph WNW5.5 kmh WNW 6.9 mph11.1 kmh 30.12 in1020.0 mb - 0.00 in0.0 mm 0.00 in0.0 mm
03:26 AM 41.8°F5.4°C 38.8°F3.8°C 89% 3.4 mph NW5.5 kmh NW 4.6 mph7.4 kmh 30.12 in1020.0 mb - 0.00 in0.0 mm 0.00 in0.0 mm
03:20 AM 41.8°F5.4°C 38.8°F3.8°C 89% 2.3 mph WNW3.7 kmh WNW 4.6 mph7.4 kmh 30.12 in1020.0 mb - 0.00 in0.0 mm 0.00 in0.0 mm
03:15 AM 41.9°F5.5°C 38.9°F3.8°C 89% 3.4 mph WNW5.5 kmh WNW 4.6 mph7.4 kmh 30.12 in1020.0 mb - 0.00 in0.0 mm 0.00 in0.0 mm
03:09 AM 41.9°F5.5°C 38.6°F3.7°C 88% 4.6 mph WNW7.4 kmh WNW 6.9 mph11.1 kmh 30.12 in1020.0 mb - 0.00 in0.0 mm 0.00 in0.0 mm
03:03 AM 42.1°F5.6°C 38.8°F3.8°C 88% 4.6 mph W7.4 kmh W 5.8 mph9.3 kmh 30.12 in1020.0 mb - 0.00 in0.0 mm 0.00 in0.0 mm
02:58 AM 42.1°F5.6°C 38.8°F3.8°C 88% 3.4 mph NW5.5 kmh NW 4.6 mph7.4 kmh 30.12 in1020.0 mb - 0.00 in0.0 mm 0.00 in0.0 mm
02:52 AM 42.1°F5.6°C 38.8°F3.8°C 88% 3.4 mph WNW5.5 kmh WNW 4.6 mph7.4 kmh 30.12 in1020.0 mb - 0.00 in0.0 mm 0.00 in0.0 mm
02:46 AM 42.3°F5.7°C 38.7°F3.7°C 87% 2.3 mph NW3.7 kmh NW 3.4 mph5.5 kmh 30.11 in1019.6 mb - 0.00 in0.0 mm 0.00 in0.0 mm
02:41 AM 42.3°F5.7°C 38.7°F3.7°C 87% 3.4 mph W5.5 kmh W 4.6 mph7.4 kmh 30.12 in1020.0 mb - 0.00 in0.0 mm 0.00 in0.0 mm
02:35 AM 42.5°F5.8°C 38.9°F3.8°C 87% 5.8 mph NNW9.3 kmh NNW 10.3 mph16.6 kmh 30.11 in1019.6 mb - 0.00 in0.0 mm 0.00 in0.0 mm
02:30 AM 42.5°F5.8°C 38.9°F3.8°C 87% 4.6 mph NNW7.4 kmh NNW 6.9 mph11.1 kmh 30.11 in1019.6 mb - 0.00 in0.0 mm 0.00 in0.0 mm
02:24 AM 42.7°F5.9°C 39.1°F3.9°C 87% 4.6 mph N7.4 kmh N 5.8 mph9.3 kmh 30.11 in1019.6 mb - 0.00 in0.0 mm 0.00 in0.0 mm
02:18 AM 42.7°F5.9°C 39.1°F3.9°C 87% 3.4 mph NW5.5 kmh NW 4.6 mph7.4 kmh 30.11 in1019.6 mb - 0.00 in0.0 mm 0.00 in0.0 mm
02:13 AM 42.8°F6.0°C 38.9°F3.8°C 86% 5.8 mph NW9.3 kmh NW 10.3 mph16.6 kmh 30.11 in1019.6 mb - 0.00 in0.0 mm 0.00 in0.0 mm
02:07 AM 42.8°F6.0°C 38.9°F3.8°C 86% 4.6 mph NNW7.4 kmh NNW 6.9 mph11.1 kmh 30.11 in1019.6 mb - 0.00 in0.0 mm 0.00 in0.0 mm
02:01 AM 42.8°F6.0°C 38.9°F3.8°C 86% 4.6 mph NW7.4 kmh NW 6.9 mph11.1 kmh 30.10 in1019.3 mb - 0.00 in0.0 mm 0.00 in0.0 mm
01:56 AM 42.8°F6.0°C 38.9°F3.8°C 86% 4.6 mph NW7.4 kmh NW 8.0 mph12.9 kmh 30.11 in1019.6 mb - 0.00 in0.0 mm 0.00 in0.0 mm
01:50 AM 42.9°F6.1°C 39.0°F3.9°C 86% 4.6 mph NW7.4 kmh NW 6.9 mph11.1 kmh 30.11 in1019.6 mb - 0.00 in0.0 mm 0.00 in0.0 mm
01:45 AM 42.9°F6.1°C 39.0°F3.9°C 86% 5.8 mph NNW9.3 kmh NNW 8.0 mph12.9 kmh 30.11 in1019.6 mb - 0.00 in0.0 mm 0.00 in0.0 mm
01:39 AM 43.1°F6.2°C 38.9°F3.8°C 85% 4.6 mph NW7.4 kmh NW 8.0 mph12.9 kmh 30.11 in1019.6 mb - 0.00 in0.0 mm 0.00 in0.0 mm
01:33 AM 43.2°F6.2°C 39.0°F3.9°C 85% 4.6 mph NNW7.4 kmh NNW 6.9 mph11.1 kmh 30.11 in1019.6 mb - 0.00 in0.0 mm 0.00 in0.0 mm
01:28 AM 43.3°F6.3°C 39.1°F3.9°C 85% 4.6 mph NW7.4 kmh NW 5.8 mph9.3 kmh 30.10 in1019.3 mb - 0.00 in0.0 mm 0.00 in0.0 mm
01:22 AM 43.3°F6.3°C 39.1°F3.9°C 85% 8.0 mph NNW12.9 kmh NNW 11.5 mph18.5 kmh 30.10 in1019.3 mb - 0.00 in0.0 mm 0.00 in0.0 mm
01:16 AM 43.3°F6.3°C 39.1°F3.9°C 85% 5.8 mph NW9.3 kmh NW 11.5 mph18.5 kmh 30.10 in1019.3 mb - 0.00 in0.0 mm 0.00 in0.0 mm
01:11 AM 43.4°F6.3°C 38.9°F3.8°C 84% 5.8 mph NNW9.3 kmh NNW 9.2 mph14.8 kmh 30.10 in1019.3 mb - 0.00 in0.0 mm 0.00 in0.0 mm
01:05 AM 43.6°F6.4°C 39.1°F3.9°C 84% 5.8 mph NNW9.3 kmh NNW 9.2 mph14.8 kmh 30.10 in1019.3 mb - 0.00 in0.0 mm 0.00 in0.0 mm
01:00 AM 43.5°F6.4°C 39.0°F3.9°C 84% 5.8 mph N9.3 kmh N 11.5 mph18.5 kmh 30.10 in1019.3 mb - 0.00 in0.0 mm 0.00 in0.0 mm
12:54 AM 43.5°F6.4°C 39.0°F3.9°C 84% 8.0 mph N12.9 kmh N 11.5 mph18.5 kmh 30.09 in1019.0 mb - 0.00 in0.0 mm 0.00 in0.0 mm
12:48 AM 43.5°F6.4°C 39.0°F3.9°C 84% 4.6 mph WNW7.4 kmh WNW 11.5 mph18.5 kmh 30.09 in1019.0 mb - 0.00 in0.0 mm 0.00 in0.0 mm
12:43 AM 43.7°F6.5°C 39.2°F4.0°C 84% 6.9 mph N11.1 kmh N 9.2 mph14.8 kmh 30.09 in1019.0 mb - 0.00 in0.0 mm 0.00 in0.0 mm
12:37 AM 43.7°F6.5°C 39.2°F4.0°C 84% 5.8 mph NW9.3 kmh NW 8.0 mph12.9 kmh 30.09 in1019.0 mb - 0.00 in0.0 mm 0.00 in0.0 mm
12:31 AM 43.7°F6.5°C 39.2°F4.0°C 84% 4.6 mph NW7.4 kmh NW 10.3 mph16.6 kmh 30.08 in1018.6 mb - 0.00 in0.0 mm 0.00 in0.0 mm
12:26 AM 43.7°F6.5°C 39.2°F4.0°C 84% 4.6 mph NW7.4 kmh NW 8.0 mph12.9 kmh 30.08 in1018.6 mb - 0.00 in0.0 mm 0.00 in0.0 mm
12:20 AM 43.7°F6.5°C 39.2°F4.0°C 84% 6.9 mph NW11.1 kmh NW 9.2 mph14.8 kmh 30.08 in1018.6 mb - 0.00 in0.0 mm 0.00 in0.0 mm
12:15 AM 43.7°F6.5°C 39.2°F4.0°C 84% 5.8 mph NW9.3 kmh NW 10.3 mph16.6 kmh 30.08 in1018.6 mb - 0.00 in0.0 mm 0.00 in0.0 mm
12:09 AM 43.8°F6.6°C 39.3°F4.1°C 84% 6.9 mph NNW11.1 kmh NNW 10.3 mph16.6 kmh 30.07 in1018.3 mb - 0.00 in0.0 mm 0.00 in0.0 mm
12:03 AM 43.9°F6.6°C 39.4°F4.1°C 84% 5.8 mph NW9.3 kmh NW 10.3 mph16.6 kmh 30.07 in1018.3 mb - 0.00 in0.0 mm 0.00 in0.0 mm